Kezdőlap
METAR-TAF:

METAR-TAF

Repülőterek :

Kairói nemzetközi repülőtér

Kairó, Egyiptom

földrajzi szélesség: 30-08N, földrajzi hosszúság: 031-24E, magasság: 64 m

Jelenlegi meteorológiai megfigyelések

A jelentés 34 perccel ezelõtt készült, 14:30 UTC
Észak-északkeleti szél 7 kt
Hőmérséklet 34°C
Páratartalom 34%
Légköri nyomás 1010 hPa
Látótávolság 10 km, vagy több
Szórványos felhőzet 2500 lábon

METAR: HECA 181430Z 03007KT 9999 SCT025 34/16 Q1010 NOSIG

Idő: 17:04 (15:04 UTC)

Előrejelzés

A jelentés 4 órával és 4 perccel ezelõtt készült, 11:00 UTC
Az előrejelzés 18-én 12 óra UTC és 19-én 18 óra UTC között érvényes
Északi szél 8 kt
Látótávolság 10 km, vagy több
felhőtlen 1500 m magasságban, és nincs gomolyfelhõ
19-én 02 óra UTC és 19-én 06 óra UTC között ideiglenes
Különbözõ irányokból fújó szél 3 kt
Látótávolság: 4000 m
Párásság

TAF: HECA 181100Z 1812/1918 36008KT CAVOK TEMPO 1902/1906 VRB03KT 4000 BR NSC

Meteorológiai megfigyelések és előrejelzések több, mint 4000 repülőtéren (METAR és TAF jelentéseket).

A térképen piros és sárga pontok jelzik az elérhető meteorológiai állomásokat.

Mozgassa az egeret a pont fölött, hogy megjelenjen az állomás neve.

Azután kattintson az időjárási megfigyelések és előrejelzések megtekintéséhez.

A térkép megváltoztatása: kattintson a fekete keresztel jelölt zöld gombra ráközelítéshez, a vonallal jelölt zöld gombra távolításhoz, vagy a zöld nyilakra a szomszédos térképek eléréséhez.


METAR-TAF: